sensor_id;sensor_type;location;lat;lon;timestamp;P1;durP1;ratioP1;P2;durP2;ratioP2
83690;SDS011;73671;43.220;0.064;2024-03-02T00:05:20;3.95;;;1.50;;
83690;SDS011;73671;43.220;0.064;2024-03-02T00:07:48;3.65;;;1.98;;
83690;SDS011;73671;43.220;0.064;2024-03-02T00:10:19;3.25;;;1.65;;
83690;SDS011;73671;43.220;0.064;2024-03-02T00:12:48;2.92;;;1.60;;
83690;SDS011;73671;43.220;0.064;2024-03-02T00:17:58;4.53;;;1.67;;
83690;SDS011;73671;43.220;0.064;2024-03-02T00:20:24;2.97;;;1.33;;
83690;SDS011;73671;43.220;0.064;2024-03-02T00:22:52;4.80;;;1.80;;
83690;SDS011;73671;43.220;0.064;2024-03-02T00:25:39;5.50;;;1.70;;
83690;SDS011;73671;43.220;0.064;2024-03-02T00:31:09;2.15;;;1.30;;
83690;SDS011;73671;43.220;0.064;2024-03-02T00:33:38;4.30;;;1.70;;
83690;SDS011;73671;43.220;0.064;2024-03-02T00:36:09;5.78;;;1.60;;
83690;SDS011;73671;43.220;0.064;2024-03-02T00:38:41;4.53;;;1.42;;
83690;SDS011;73671;43.220;0.064;2024-03-02T00:41:11;2.80;;;1.40;;
83690;SDS011;73671;43.220;0.064;2024-03-02T00:44:06;3.03;;;1.17;;
83690;SDS011;73671;43.220;0.064;2024-03-02T00:46:33;2.47;;;1.35;;
83690;SDS011;73671;43.220;0.064;2024-03-02T00:49:05;5.95;;;1.27;;
83690;SDS011;73671;43.220;0.064;2024-03-02T00:51:36;3.50;;;1.20;;
83690;SDS011;73671;43.220;0.064;2024-03-02T00:54:03;3.30;;;1.67;;
83690;SDS011;73671;43.220;0.064;2024-03-02T00:56:30;2.80;;;1.20;;
83690;SDS011;73671;43.220;0.064;2024-03-02T00:58:56;3.63;;;1.23;;
83690;SDS011;73671;43.220;0.064;2024-03-02T01:01:22;1.70;;;1.10;;
83690;SDS011;73671;43.220;0.064;2024-03-02T01:03:48;1.77;;;1.27;;
83690;SDS011;73671;43.220;0.064;2024-03-02T01:06:14;6.53;;;1.52;;
83690;SDS011;73671;43.220;0.064;2024-03-02T01:08:40;1.33;;;1.10;;
83690;SDS011;73671;43.220;0.064;2024-03-02T01:11:06;3.00;;;1.30;;
83690;SDS011;73671;43.220;0.064;2024-03-02T01:13:33;2.35;;;1.30;;
83690;SDS011;73671;43.220;0.064;2024-03-02T01:15:59;5.03;;;1.30;;
83690;SDS011;73671;43.220;0.064;2024-03-02T01:18:25;2.63;;;1.30;;
83690;SDS011;73671;43.220;0.064;2024-03-02T01:20:51;3.42;;;1.63;;
83690;SDS011;73671;43.220;0.064;2024-03-02T01:23:19;5.43;;;2.22;;
83690;SDS011;73671;43.220;0.064;2024-03-02T01:25:46;2.33;;;1.60;;
83690;SDS011;73671;43.220;0.064;2024-03-02T01:28:14;3.78;;;1.88;;
83690;SDS011;73671;43.220;0.064;2024-03-02T01:30:40;4.03;;;1.70;;
83690;SDS011;73671;43.220;0.064;2024-03-02T01:33:06;3.30;;;1.30;;
83690;SDS011;73671;43.220;0.064;2024-03-02T01:35:32;1.83;;;1.20;;
83690;SDS011;73671;43.220;0.064;2024-03-02T01:37:58;2.50;;;1.42;;
83690;SDS011;73671;43.220;0.064;2024-03-02T01:40:23;6.32;;;2.60;;
83690;SDS011;73671;43.220;0.064;2024-03-02T01:42:53;8.55;;;4.03;;
83690;SDS011;73671;43.220;0.064;2024-03-02T01:45:24;4.65;;;2.30;;
83690;SDS011;73671;43.220;0.064;2024-03-02T01:47:50;3.05;;;2.20;;
83690;SDS011;73671;43.220;0.064;2024-03-02T01:50:15;8.90;;;3.70;;
83690;SDS011;73671;43.220;0.064;2024-03-02T01:52:49;4.25;;;1.70;;
83690;SDS011;73671;43.220;0.064;2024-03-02T01:55:14;2.35;;;1.30;;
83690;SDS011;73671;43.220;0.064;2024-03-02T01:57:40;4.72;;;2.35;;
83690;SDS011;73671;43.220;0.064;2024-03-02T02:00:05;1.65;;;1.55;;
83690;SDS011;73671;43.220;0.064;2024-03-02T02:02:32;2.85;;;2.00;;
83690;SDS011;73671;43.220;0.064;2024-03-02T02:04:57;2.67;;;1.50;;
83690;SDS011;73671;43.220;0.064;2024-03-02T02:07:22;3.10;;;2.00;;
83690;SDS011;73671;43.220;0.064;2024-03-02T02:09:48;3.30;;;1.88;;
83690;SDS011;73671;43.220;0.064;2024-03-02T02:12:13;2.20;;;1.90;;
83690;SDS011;73671;43.220;0.064;2024-03-02T02:14:46;3.63;;;2.05;;
83690;SDS011;73671;43.220;0.064;2024-03-02T02:17:12;4.90;;;2.40;;
83690;SDS011;73671;43.220;0.064;2024-03-02T02:19:37;2.05;;;1.83;;
83690;SDS011;73671;43.220;0.064;2024-03-02T02:22:05;2.38;;;1.38;;
83690;SDS011;73671;43.220;0.064;2024-03-02T02:24:31;1.63;;;1.52;;
83690;SDS011;73671;43.220;0.064;2024-03-02T02:26:56;1.30;;;1.20;;
83690;SDS011;73671;43.220;0.064;2024-03-02T02:29:22;1.30;;;1.10;;
83690;SDS011;73671;43.220;0.064;2024-03-02T02:31:47;1.27;;;1.17;;
83690;SDS011;73671;43.220;0.064;2024-03-02T02:34:13;1.00;;;1.00;;
83690;SDS011;73671;43.220;0.064;2024-03-02T02:36:39;2.85;;;2.28;;
83690;SDS011;73671;43.220;0.064;2024-03-02T02:39:05;8.52;;;3.85;;
83690;SDS011;73671;43.220;0.064;2024-03-02T02:41:33;5.90;;;3.25;;
83690;SDS011;73671;43.220;0.064;2024-03-02T02:43:59;4.13;;;2.10;;
83690;SDS011;73671;43.220;0.064;2024-03-02T02:46:24;4.07;;;2.50;;
83690;SDS011;73671;43.220;0.064;2024-03-02T02:48:49;1.95;;;1.60;;
83690;SDS011;73671;43.220;0.064;2024-03-02T02:51:16;1.60;;;1.50;;
83690;SDS011;73671;43.220;0.064;2024-03-02T02:53:42;2.55;;;1.50;;
83690;SDS011;73671;43.220;0.064;2024-03-02T02:56:07;1.67;;;1.20;;
83690;SDS011;73671;43.220;0.064;2024-03-02T02:58:33;3.17;;;1.10;;
83690;SDS011;73671;43.220;0.064;2024-03-02T03:00:58;1.10;;;1.00;;
83690;SDS011;73671;43.220;0.064;2024-03-02T03:03:24;1.25;;;1.08;;
83690;SDS011;73671;43.220;0.064;2024-03-02T03:05:49;1.23;;;1.10;;
83690;SDS011;73671;43.220;0.064;2024-03-02T03:08:15;1.15;;;0.90;;
83690;SDS011;73671;43.220;0.064;2024-03-02T03:10:41;1.02;;;1.00;;
83690;SDS011;73671;43.220;0.064;2024-03-02T03:13:07;1.30;;;1.20;;
83690;SDS011;73671;43.220;0.064;2024-03-02T03:15:34;2.15;;;1.00;;
83690;SDS011;73671;43.220;0.064;2024-03-02T03:18:01;2.90;;;1.45;;
83690;SDS011;73671;43.220;0.064;2024-03-02T03:20:28;1.08;;;0.98;;
83690;SDS011;73671;43.220;0.064;2024-03-02T03:22:54;2.63;;;1.00;;
83690;SDS011;73671;43.220;0.064;2024-03-02T03:25:19;2.10;;;1.30;;
83690;SDS011;73671;43.220;0.064;2024-03-02T03:27:45;1.15;;;1.08;;
83690;SDS011;73671;43.220;0.064;2024-03-02T03:30:11;1.10;;;1.00;;
83690;SDS011;73671;43.220;0.064;2024-03-02T03:32:36;1.52;;;1.02;;
83690;SDS011;73671;43.220;0.064;2024-03-02T03:35:02;2.38;;;1.20;;
83690;SDS011;73671;43.220;0.064;2024-03-02T03:37:28;1.75;;;1.02;;
83690;SDS011;73671;43.220;0.064;2024-03-02T03:39:57;1.95;;;1.30;;
83690;SDS011;73671;43.220;0.064;2024-03-02T03:42:24;3.95;;;1.40;;
83690;SDS011;73671;43.220;0.064;2024-03-02T03:44:49;1.38;;;1.10;;
83690;SDS011;73671;43.220;0.064;2024-03-02T03:47:15;1.48;;;1.30;;
83690;SDS011;73671;43.220;0.064;2024-03-02T03:49:40;1.23;;;1.13;;
83690;SDS011;73671;43.220;0.064;2024-03-02T03:52:06;1.02;;;1.02;;
83690;SDS011;73671;43.220;0.064;2024-03-02T03:54:31;2.90;;;1.23;;
83690;SDS011;73671;43.220;0.064;2024-03-02T03:56:56;1.40;;;1.15;;
83690;SDS011;73671;43.220;0.064;2024-03-02T03:59:22;4.47;;;1.48;;
83690;SDS011;73671;43.220;0.064;2024-03-02T04:01:47;2.63;;;1.42;;
83690;SDS011;73671;43.220;0.064;2024-03-02T04:04:13;2.80;;;1.10;;
83690;SDS011;73671;43.220;0.064;2024-03-02T04:06:38;1.48;;;1.10;;
83690;SDS011;73671;43.220;0.064;2024-03-02T04:09:03;1.58;;;1.30;;
83690;SDS011;73671;43.220;0.064;2024-03-02T04:11:29;2.00;;;1.38;;
83690;SDS011;73671;43.220;0.064;2024-03-02T04:13:55;1.30;;;1.20;;
83690;SDS011;73671;43.220;0.064;2024-03-02T04:16:20;1.33;;;1.20;;
83690;SDS011;73671;43.220;0.064;2024-03-02T04:18:46;1.30;;;1.20;;
83690;SDS011;73671;43.220;0.064;2024-03-02T04:21:11;1.58;;;1.13;;
83690;SDS011;73671;43.220;0.064;2024-03-02T04:23:37;1.52;;;1.15;;
83690;SDS011;73671;43.220;0.064;2024-03-02T04:26:02;1.20;;;1.10;;
83690;SDS011;73671;43.220;0.064;2024-03-02T04:28:28;1.20;;;1.20;;
83690;SDS011;73671;43.220;0.064;2024-03-02T04:30:53;1.17;;;1.15;;
83690;SDS011;73671;43.220;0.064;2024-03-02T04:33:18;4.78;;;1.40;;
83690;SDS011;73671;43.220;0.064;2024-03-02T04:35:44;1.55;;;1.40;;
83690;SDS011;73671;43.220;0.064;2024-03-02T04:38:09;1.70;;;1.40;;
83690;SDS011;73671;43.220;0.064;2024-03-02T04:40:35;2.30;;;1.48;;
83690;SDS011;73671;43.220;0.064;2024-03-02T04:43:00;1.77;;;1.30;;
83690;SDS011;73671;43.220;0.064;2024-03-02T04:45:25;2.33;;;1.30;;
83690;SDS011;73671;43.220;0.064;2024-03-02T04:47:51;1.38;;;1.27;;
83690;SDS011;73671;43.220;0.064;2024-03-02T04:50:16;1.38;;;1.27;;
83690;SDS011;73671;43.220;0.064;2024-03-02T04:52:42;1.40;;;1.30;;
83690;SDS011;73671;43.220;0.064;2024-03-02T04:55:07;1.92;;;1.15;;
83690;SDS011;73671;43.220;0.064;2024-03-02T04:57:54;5.38;;;1.27;;
83690;SDS011;73671;43.220;0.064;2024-03-02T05:00:21;1.77;;;1.20;;
83690;SDS011;73671;43.220;0.064;2024-03-02T05:02:46;1.40;;;1.30;;
83690;SDS011;73671;43.220;0.064;2024-03-02T05:05:12;2.05;;;1.45;;
83690;SDS011;73671;43.220;0.064;2024-03-02T05:07:38;1.60;;;1.50;;
83690;SDS011;73671;43.220;0.064;2024-03-02T05:10:03;1.48;;;1.38;;
83690;SDS011;73671;43.220;0.064;2024-03-02T05:12:29;1.58;;;1.48;;
83690;SDS011;73671;43.220;0.064;2024-03-02T05:15:14;1.35;;;1.30;;
83690;SDS011;73671;43.220;0.064;2024-03-02T05:17:40;4.07;;;1.40;;
83690;SDS011;73671;43.220;0.064;2024-03-02T05:20:08;3.20;;;1.40;;
83690;SDS011;73671;43.220;0.064;2024-03-02T05:22:34;1.50;;;1.40;;
83690;SDS011;73671;43.220;0.064;2024-03-02T05:25:00;1.70;;;1.30;;
83690;SDS011;73671;43.220;0.064;2024-03-02T05:27:27;3.35;;;1.42;;
83690;SDS011;73671;43.220;0.064;2024-03-02T05:29:52;1.55;;;1.42;;
83690;SDS011;73671;43.220;0.064;2024-03-02T05:32:18;1.60;;;1.50;;
83690;SDS011;73671;43.220;0.064;2024-03-02T05:34:43;2.13;;;1.73;;
83690;SDS011;73671;43.220;0.064;2024-03-02T05:37:08;2.15;;;1.40;;
83690;SDS011;73671;43.220;0.064;2024-03-02T05:39:34;3.65;;;1.40;;
83690;SDS011;73671;43.220;0.064;2024-03-02T05:41:59;1.77;;;1.38;;
83690;SDS011;73671;43.220;0.064;2024-03-02T05:44:25;1.65;;;1.55;;
83690;SDS011;73671;43.220;0.064;2024-03-02T05:46:50;1.55;;;1.45;;
83690;SDS011;73671;43.220;0.064;2024-03-02T05:49:15;3.72;;;1.52;;
83690;SDS011;73671;43.220;0.064;2024-03-02T05:51:41;1.60;;;1.50;;
83690;SDS011;73671;43.220;0.064;2024-03-02T05:54:06;1.65;;;1.55;;
83690;SDS011;73671;43.220;0.064;2024-03-02T05:56:32;3.13;;;1.85;;
83690;SDS011;73671;43.220;0.064;2024-03-02T05:58:57;2.05;;;1.85;;
83690;SDS011;73671;43.220;0.064;2024-03-02T06:01:39;7.35;;;1.88;;
83690;SDS011;73671;43.220;0.064;2024-03-02T06:04:08;2.38;;;1.63;;
83690;SDS011;73671;43.220;0.064;2024-03-02T06:06:33;3.17;;;2.03;;
83690;SDS011;73671;43.220;0.064;2024-03-02T06:08:59;4.50;;;2.00;;
83690;SDS011;73671;43.220;0.064;2024-03-02T06:11:26;2.58;;;2.25;;
83690;SDS011;73671;43.220;0.064;2024-03-02T06:13:51;2.17;;;1.98;;
83690;SDS011;73671;43.220;0.064;2024-03-02T06:16:16;6.00;;;2.20;;
83690;SDS011;73671;43.220;0.064;2024-03-02T06:18:42;3.03;;;2.30;;
83690;SDS011;73671;43.220;0.064;2024-03-02T06:21:07;4.75;;;2.45;;
83690;SDS011;73671;43.220;0.064;2024-03-02T06:23:33;5.53;;;2.33;;
83690;SDS011;73671;43.220;0.064;2024-03-02T06:25:59;4.72;;;2.28;;
83690;SDS011;73671;43.220;0.064;2024-03-02T06:28:25;6.40;;;2.90;;
83690;SDS011;73671;43.220;0.064;2024-03-02T06:30:50;4.80;;;2.50;;
83690;SDS011;73671;43.220;0.064;2024-03-02T06:33:16;3.42;;;2.20;;
83690;SDS011;73671;43.220;0.064;2024-03-02T06:35:41;3.05;;;2.30;;
83690;SDS011;73671;43.220;0.064;2024-03-02T06:38:07;2.40;;;2.20;;
83690;SDS011;73671;43.220;0.064;2024-03-02T06:40:32;4.78;;;2.42;;
83690;SDS011;73671;43.220;0.064;2024-03-02T06:42:59;4.90;;;2.50;;
83690;SDS011;73671;43.220;0.064;2024-03-02T06:45:24;6.03;;;2.22;;
83690;SDS011;73671;43.220;0.064;2024-03-02T06:47:49;4.97;;;2.83;;
83690;SDS011;73671;43.220;0.064;2024-03-02T06:50:15;5.10;;;2.17;;
83690;SDS011;73671;43.220;0.064;2024-03-02T06:52:40;4.25;;;2.30;;
83690;SDS011;73671;43.220;0.064;2024-03-02T06:55:06;5.50;;;2.35;;
83690;SDS011;73671;43.220;0.064;2024-03-02T06:57:31;4.10;;;2.35;;
83690;SDS011;73671;43.220;0.064;2024-03-02T06:59:57;2.83;;;2.13;;
83690;SDS011;73671;43.220;0.064;2024-03-02T07:02:24;2.70;;;1.98;;
83690;SDS011;73671;43.220;0.064;2024-03-02T07:04:51;3.28;;;2.40;;
83690;SDS011;73671;43.220;0.064;2024-03-02T07:07:17;2.83;;;2.30;;
83690;SDS011;73671;43.220;0.064;2024-03-02T07:09:43;3.58;;;2.30;;
83690;SDS011;73671;43.220;0.064;2024-03-02T07:12:08;3.92;;;2.25;;
83690;SDS011;73671;43.220;0.064;2024-03-02T07:14:34;2.38;;;2.17;;
83690;SDS011;73671;43.220;0.064;2024-03-02T07:17:18;2.60;;;2.40;;
83690;SDS011;73671;43.220;0.064;2024-03-02T07:19:44;6.88;;;2.58;;
83690;SDS011;73671;43.220;0.064;2024-03-02T07:22:09;3.55;;;2.50;;
83690;SDS011;73671;43.220;0.064;2024-03-02T07:24:41;3.63;;;2.60;;
83690;SDS011;73671;43.220;0.064;2024-03-02T07:27:07;5.13;;;3.75;;
83690;SDS011;73671;43.220;0.064;2024-03-02T07:29:34;8.90;;;2.90;;
83690;SDS011;73671;43.220;0.064;2024-03-02T07:31:59;3.22;;;2.22;;
83690;SDS011;73671;43.220;0.064;2024-03-02T07:34:25;5.15;;;2.40;;
83690;SDS011;73671;43.220;0.064;2024-03-02T07:36:50;5.22;;;2.13;;
83690;SDS011;73671;43.220;0.064;2024-03-02T07:39:16;2.70;;;2.40;;
83690;SDS011;73671;43.220;0.064;2024-03-02T07:41:41;3.97;;;2.42;;
83690;SDS011;73671;43.220;0.064;2024-03-02T07:44:07;5.97;;;2.50;;
83690;SDS011;73671;43.220;0.064;2024-03-02T07:46:32;3.53;;;2.40;;
83690;SDS011;73671;43.220;0.064;2024-03-02T07:48:58;3.10;;;2.47;;
83690;SDS011;73671;43.220;0.064;2024-03-02T07:51:23;3.60;;;2.42;;
83690;SDS011;73671;43.220;0.064;2024-03-02T07:53:49;2.42;;;2.22;;
83690;SDS011;73671;43.220;0.064;2024-03-02T07:56:14;2.67;;;2.30;;
83690;SDS011;73671;43.220;0.064;2024-03-02T07:58:46;2.55;;;2.10;;
83690;SDS011;73671;43.220;0.064;2024-03-02T08:01:13;4.50;;;2.55;;
83690;SDS011;73671;43.220;0.064;2024-03-02T08:03:38;3.05;;;2.30;;
83690;SDS011;73671;43.220;0.064;2024-03-02T08:06:04;3.60;;;2.38;;
83690;SDS011;73671;43.220;0.064;2024-03-02T08:08:29;2.55;;;2.30;;
83690;SDS011;73671;43.220;0.064;2024-03-02T08:10:55;4.65;;;2.70;;
83690;SDS011;73671;43.220;0.064;2024-03-02T08:13:20;5.13;;;2.70;;
83690;SDS011;73671;43.220;0.064;2024-03-02T08:15:45;4.30;;;3.08;;
83690;SDS011;73671;43.220;0.064;2024-03-02T08:18:11;3.50;;;2.40;;
83690;SDS011;73671;43.220;0.064;2024-03-02T08:20:37;4.03;;;2.60;;
83690;SDS011;73671;43.220;0.064;2024-03-02T08:23:02;3.10;;;2.47;;
83690;SDS011;73671;43.220;0.064;2024-03-02T08:25:28;6.97;;;3.00;;
83690;SDS011;73671;43.220;0.064;2024-03-02T08:27:54;3.40;;;2.50;;
83690;SDS011;73671;43.220;0.064;2024-03-02T08:30:19;4.35;;;3.15;;
83690;SDS011;73671;43.220;0.064;2024-03-02T08:32:44;3.67;;;2.60;;
83690;SDS011;73671;43.220;0.064;2024-03-02T08:35:12;4.97;;;2.30;;
83690;SDS011;73671;43.220;0.064;2024-03-02T08:37:39;2.20;;;1.98;;
83690;SDS011;73671;43.220;0.064;2024-03-02T08:40:05;5.68;;;2.20;;
83690;SDS011;73671;43.220;0.064;2024-03-02T08:42:32;2.20;;;2.00;;
83690;SDS011;73671;43.220;0.064;2024-03-02T08:44:58;3.70;;;2.10;;
83690;SDS011;73671;43.220;0.064;2024-03-02T08:47:25;3.55;;;2.05;;
83690;SDS011;73671;43.220;0.064;2024-03-02T08:49:52;4.28;;;2.42;;
83690;SDS011;73671;43.220;0.064;2024-03-02T08:52:17;2.95;;;2.20;;
83690;SDS011;73671;43.220;0.064;2024-03-02T08:54:43;3.65;;;2.60;;
83690;SDS011;73671;43.220;0.064;2024-03-02T08:57:08;3.28;;;2.47;;
83690;SDS011;73671;43.220;0.064;2024-03-02T08:59:33;3.05;;;2.00;;
83690;SDS011;73671;43.220;0.064;2024-03-02T09:01:59;4.15;;;2.50;;
83690;SDS011;73671;43.220;0.064;2024-03-02T09:04:24;3.53;;;2.20;;
83690;SDS011;73671;43.220;0.064;2024-03-02T09:06:50;2.00;;;1.80;;
83690;SDS011;73671;43.220;0.064;2024-03-02T09:09:15;4.10;;;2.30;;
83690;SDS011;73671;43.220;0.064;2024-03-02T09:11:41;4.18;;;2.40;;
83690;SDS011;73671;43.220;0.064;2024-03-02T09:14:06;2.60;;;2.40;;
83690;SDS011;73671;43.220;0.064;2024-03-02T09:16:31;5.38;;;2.58;;
83690;SDS011;73671;43.220;0.064;2024-03-02T09:18:57;2.83;;;2.42;;
83690;SDS011;73671;43.220;0.064;2024-03-02T09:21:23;2.30;;;2.10;;
83690;SDS011;73671;43.220;0.064;2024-03-02T09:23:48;2.80;;;2.40;;
83690;SDS011;73671;43.220;0.064;2024-03-02T09:26:14;2.10;;;1.90;;
83690;SDS011;73671;43.220;0.064;2024-03-02T09:28:42;2.85;;;2.30;;
83690;SDS011;73671;43.220;0.064;2024-03-02T09:31:09;2.78;;;2.00;;
83690;SDS011;73671;43.220;0.064;2024-03-02T09:33:34;3.53;;;2.30;;
83690;SDS011;73671;43.220;0.064;2024-03-02T09:35:59;3.45;;;2.20;;
83690;SDS011;73671;43.220;0.064;2024-03-02T09:38:25;2.42;;;2.22;;
83690;SDS011;73671;43.220;0.064;2024-03-02T09:40:51;5.60;;;2.47;;
83690;SDS011;73671;43.220;0.064;2024-03-02T09:43:16;1.77;;;1.67;;
83690;SDS011;73671;43.220;0.064;2024-03-02T09:45:42;3.75;;;2.47;;
83690;SDS011;73671;43.220;0.064;2024-03-02T09:48:08;3.88;;;2.50;;
83690;SDS011;73671;43.220;0.064;2024-03-02T09:50:33;5.95;;;2.67;;
83690;SDS011;73671;43.220;0.064;2024-03-02T09:52:59;5.00;;;2.83;;
83690;SDS011;73671;43.220;0.064;2024-03-02T09:55:24;2.45;;;2.25;;
83690;SDS011;73671;43.220;0.064;2024-03-02T09:57:50;3.08;;;2.38;;
83690;SDS011;73671;43.220;0.064;2024-03-02T10:00:16;3.08;;;2.33;;
83690;SDS011;73671;43.220;0.064;2024-03-02T10:02:42;3.28;;;2.58;;
83690;SDS011;73671;43.220;0.064;2024-03-02T10:05:11;4.55;;;1.88;;
83690;SDS011;73671;43.220;0.064;2024-03-02T10:07:39;4.32;;;2.67;;
83690;SDS011;73671;43.220;0.064;2024-03-02T10:10:13;3.25;;;2.53;;
83690;SDS011;73671;43.220;0.064;2024-03-02T10:12:39;4.72;;;2.55;;
83690;SDS011;73671;43.220;0.064;2024-03-02T10:15:05;3.83;;;2.78;;
83690;SDS011;73671;43.220;0.064;2024-03-02T10:17:31;4.30;;;3.08;;
83690;SDS011;73671;43.220;0.064;2024-03-02T10:19:57;5.15;;;3.05;;
83690;SDS011;73671;43.220;0.064;2024-03-02T10:22:22;6.47;;;2.83;;
83690;SDS011;73671;43.220;0.064;2024-03-02T10:24:48;4.50;;;2.85;;
83690;SDS011;73671;43.220;0.064;2024-03-02T10:27:18;4.05;;;2.63;;
83690;SDS011;73671;43.220;0.064;2024-03-02T10:29:48;5.63;;;2.80;;
83690;SDS011;73671;43.220;0.064;2024-03-02T10:32:14;5.55;;;3.13;;
83690;SDS011;73671;43.220;0.064;2024-03-02T10:34:41;5.28;;;3.10;;
83690;SDS011;73671;43.220;0.064;2024-03-02T10:37:10;4.18;;;2.60;;
83690;SDS011;73671;43.220;0.064;2024-03-02T10:39:36;4.82;;;2.60;;
83690;SDS011;73671;43.220;0.064;2024-03-02T10:42:03;2.92;;;2.60;;
83690;SDS011;73671;43.220;0.064;2024-03-02T10:44:28;4.43;;;2.85;;
83690;SDS011;73671;43.220;0.064;2024-03-02T10:46:55;4.45;;;3.40;;
83690;SDS011;73671;43.220;0.064;2024-03-02T10:49:22;4.63;;;3.00;;
83690;SDS011;73671;43.220;0.064;2024-03-02T10:51:51;3.10;;;2.70;;
83690;SDS011;73671;43.220;0.064;2024-03-02T10:54:16;6.30;;;3.03;;
83690;SDS011;73671;43.220;0.064;2024-03-02T10:56:44;4.72;;;3.20;;
83690;SDS011;73671;43.220;0.064;2024-03-02T10:59:21;7.25;;;3.30;;
83690;SDS011;73671;43.220;0.064;2024-03-02T11:01:53;5.28;;;3.17;;
83690;SDS011;73671;43.220;0.064;2024-03-02T11:04:23;4.97;;;3.80;;
83690;SDS011;73671;43.220;0.064;2024-03-02T11:06:51;5.90;;;3.60;;
83690;SDS011;73671;43.220;0.064;2024-03-02T11:09:20;6.05;;;3.20;;
83690;SDS011;73671;43.220;0.064;2024-03-02T11:11:49;4.93;;;3.42;;
83690;SDS011;73671;43.220;0.064;2024-03-02T11:14:26;6.03;;;3.30;;
83690;SDS011;73671;43.220;0.064;2024-03-02T11:16:55;4.88;;;2.80;;
83690;SDS011;73671;43.220;0.064;2024-03-02T11:19:21;4.70;;;3.05;;
83690;SDS011;73671;43.220;0.064;2024-03-02T11:21:47;7.88;;;3.67;;
83690;SDS011;73671;43.220;0.064;2024-03-02T11:24:34;9.82;;;4.88;;
83690;SDS011;73671;43.220;0.064;2024-03-02T11:26:59;5.60;;;3.65;;
83690;SDS011;73671;43.220;0.064;2024-03-02T11:32:00;5.00;;;3.08;;
83690;SDS011;73671;43.220;0.064;2024-03-02T11:34:30;5.45;;;2.80;;
83690;SDS011;73671;43.220;0.064;2024-03-02T11:37:03;5.30;;;3.05;;
83690;SDS011;73671;43.220;0.064;2024-03-02T11:39:29;4.32;;;2.83;;
83690;SDS011;73671;43.220;0.064;2024-03-02T11:41:56;4.65;;;3.17;;
83690;SDS011;73671;43.220;0.064;2024-03-02T11:44:22;5.30;;;2.90;;
83690;SDS011;73671;43.220;0.064;2024-03-02T11:46:58;3.40;;;3.10;;
83690;SDS011;73671;43.220;0.064;2024-03-02T11:49:43;5.53;;;2.85;;
83690;SDS011;73671;43.220;0.064;2024-03-02T11:52:13;5.13;;;3.10;;
83690;SDS011;73671;43.220;0.064;2024-03-02T11:54:43;4.75;;;3.47;;
83690;SDS011;73671;43.220;0.064;2024-03-02T11:57:17;5.05;;;3.58;;
83690;SDS011;73671;43.220;0.064;2024-03-02T11:59:47;7.60;;;4.60;;
83690;SDS011;73671;43.220;0.064;2024-03-02T12:02:20;8.63;;;5.20;;
83690;SDS011;73671;43.220;0.064;2024-03-02T12:04:47;8.93;;;5.07;;
83690;SDS011;73671;43.220;0.064;2024-03-02T12:07:18;5.60;;;4.65;;
83690;SDS011;73671;43.220;0.064;2024-03-02T12:09:48;7.47;;;4.28;;
83690;SDS011;73671;43.220;0.064;2024-03-02T12:12:13;9.88;;;4.38;;
83690;SDS011;73671;43.220;0.064;2024-03-02T12:14:49;4.97;;;3.60;;
83690;SDS011;73671;43.220;0.064;2024-03-02T12:17:16;5.47;;;3.35;;
83690;SDS011;73671;43.220;0.064;2024-03-02T12:19:41;5.90;;;3.72;;
83690;SDS011;73671;43.220;0.064;2024-03-02T12:22:07;8.25;;;4.43;;
83690;SDS011;73671;43.220;0.064;2024-03-02T12:24:32;12.65;;;5.18;;
83690;SDS011;73671;43.220;0.064;2024-03-02T12:26:57;14.13;;;6.53;;
83690;SDS011;73671;43.220;0.064;2024-03-02T12:29:23;11.05;;;5.72;;
83690;SDS011;73671;43.220;0.064;2024-03-02T12:31:50;13.18;;;5.80;;
83690;SDS011;73671;43.220;0.064;2024-03-02T12:34:17;11.57;;;5.70;;
83690;SDS011;73671;43.220;0.064;2024-03-02T12:36:43;12.40;;;5.97;;
83690;SDS011;73671;43.220;0.064;2024-03-02T12:39:12;12.63;;;6.07;;
83690;SDS011;73671;43.220;0.064;2024-03-02T12:41:38;13.45;;;7.35;;
83690;SDS011;73671;43.220;0.064;2024-03-02T12:44:04;11.93;;;6.95;;
83690;SDS011;73671;43.220;0.064;2024-03-02T12:46:31;10.35;;;6.05;;
83690;SDS011;73671;43.220;0.064;2024-03-02T12:48:57;9.65;;;5.95;;
83690;SDS011;73671;43.220;0.064;2024-03-02T12:51:24;11.43;;;5.78;;
83690;SDS011;73671;43.220;0.064;2024-03-02T12:53:56;11.45;;;5.55;;
83690;SDS011;73671;43.220;0.064;2024-03-02T12:56:23;10.00;;;5.10;;
83690;SDS011;73671;43.220;0.064;2024-03-02T12:58:53;6.15;;;4.63;;
83690;SDS011;73671;43.220;0.064;2024-03-02T13:01:19;7.10;;;4.43;;
83690;SDS011;73671;43.220;0.064;2024-03-02T13:03:44;6.63;;;4.75;;
83690;SDS011;73671;43.220;0.064;2024-03-02T13:06:10;7.20;;;4.57;;
83690;SDS011;73671;43.220;0.064;2024-03-02T13:08:35;6.70;;;4.32;;
83690;SDS011;73671;43.220;0.064;2024-03-02T13:11:01;6.85;;;4.35;;
83690;SDS011;73671;43.220;0.064;2024-03-02T13:13:30;6.78;;;4.47;;
83690;SDS011;73671;43.220;0.064;2024-03-02T13:15:56;8.98;;;4.15;;
83690;SDS011;73671;43.220;0.064;2024-03-02T13:18:21;6.63;;;4.38;;
83690;SDS011;73671;43.220;0.064;2024-03-02T13:20:47;6.78;;;4.57;;
83690;SDS011;73671;43.220;0.064;2024-03-02T13:23:13;11.07;;;4.40;;
83690;SDS011;73671;43.220;0.064;2024-03-02T13:25:39;6.32;;;4.05;;
83690;SDS011;73671;43.220;0.064;2024-03-02T13:28:04;5.32;;;3.70;;
83690;SDS011;73671;43.220;0.064;2024-03-02T13:30:31;6.53;;;3.72;;
83690;SDS011;73671;43.220;0.064;2024-03-02T13:32:57;7.57;;;4.03;;
83690;SDS011;73671;43.220;0.064;2024-03-02T13:35:23;6.90;;;4.13;;
83690;SDS011;73671;43.220;0.064;2024-03-02T13:37:48;4.63;;;3.40;;
83690;SDS011;73671;43.220;0.064;2024-03-02T13:40:15;7.55;;;3.35;;
83690;SDS011;73671;43.220;0.064;2024-03-02T13:42:44;5.07;;;3.30;;
83690;SDS011;73671;43.220;0.064;2024-03-02T13:45:11;4.82;;;3.25;;
83690;SDS011;73671;43.220;0.064;2024-03-02T13:47:37;8.75;;;4.20;;
83690;SDS011;73671;43.220;0.064;2024-03-02T13:50:02;8.75;;;4.47;;
83690;SDS011;73671;43.220;0.064;2024-03-02T13:52:31;6.13;;;3.83;;
83690;SDS011;73671;43.220;0.064;2024-03-02T13:54:56;7.85;;;4.20;;
83690;SDS011;73671;43.220;0.064;2024-03-02T13:57:21;9.88;;;4.30;;
83690;SDS011;73671;43.220;0.064;2024-03-02T13:59:47;8.88;;;3.97;;
83690;SDS011;73671;43.220;0.064;2024-03-02T14:02:13;6.97;;;3.95;;
83690;SDS011;73671;43.220;0.064;2024-03-02T14:04:39;7.18;;;4.13;;
83690;SDS011;73671;43.220;0.064;2024-03-02T14:07:05;5.75;;;4.35;;
83690;SDS011;73671;43.220;0.064;2024-03-02T14:09:35;7.35;;;4.72;;
83690;SDS011;73671;43.220;0.064;2024-03-02T14:12:01;8.90;;;4.78;;
83690;SDS011;73671;43.220;0.064;2024-03-02T14:14:27;16.67;;;8.90;;
83690;SDS011;73671;43.220;0.064;2024-03-02T14:16:53;7.63;;;4.68;;
83690;SDS011;73671;43.220;0.064;2024-03-02T14:19:21;7.68;;;5.40;;
83690;SDS011;73671;43.220;0.064;2024-03-02T14:21:47;10.50;;;5.32;;
83690;SDS011;73671;43.220;0.064;2024-03-02T14:24:13;12.82;;;5.93;;
83690;SDS011;73671;43.220;0.064;2024-03-02T14:26:38;10.35;;;5.80;;
83690;SDS011;73671;43.220;0.064;2024-03-02T14:29:04;11.13;;;5.88;;
83690;SDS011;73671;43.220;0.064;2024-03-02T14:31:30;7.60;;;5.22;;
83690;SDS011;73671;43.220;0.064;2024-03-02T14:33:56;7.85;;;5.13;;
83690;SDS011;73671;43.220;0.064;2024-03-02T14:36:22;9.82;;;5.32;;
83690;SDS011;73671;43.220;0.064;2024-03-02T14:38:47;7.40;;;4.57;;
83690;SDS011;73671;43.220;0.064;2024-03-02T14:41:13;8.02;;;4.60;;
83690;SDS011;73671;43.220;0.064;2024-03-02T14:43:39;8.55;;;4.97;;
83690;SDS011;73671;43.220;0.064;2024-03-02T14:46:05;6.72;;;4.45;;
83690;SDS011;73671;43.220;0.064;2024-03-02T14:48:31;8.55;;;4.13;;
83690;SDS011;73671;43.220;0.064;2024-03-02T14:50:57;7.00;;;3.67;;
83690;SDS011;73671;43.220;0.064;2024-03-02T14:53:22;5.88;;;3.47;;
83690;SDS011;73671;43.220;0.064;2024-03-02T14:55:47;7.18;;;3.50;;
83690;SDS011;73671;43.220;0.064;2024-03-02T14:58:13;8.75;;;4.18;;